sensor_id;sensor_type;location;lat;lon;timestamp;P1;durP1;ratioP1;P2;durP2;ratioP2
48627;SDS011;34424;52.234;6.500;2022-11-13T00:02:35;33.53;;;26.53;;
48627;SDS011;34424;52.234;6.500;2022-11-13T00:07:37;36.67;;;29.67;;
48627;SDS011;34424;52.234;6.500;2022-11-13T00:12:40;36.47;;;27.88;;
48627;SDS011;34424;52.234;6.500;2022-11-13T00:17:44;35.85;;;28.77;;
48627;SDS011;34424;52.234;6.500;2022-11-13T00:22:46;39.20;;;28.55;;
48627;SDS011;34424;52.234;6.500;2022-11-13T00:27:48;35.95;;;28.23;;
48627;SDS011;34424;52.234;6.500;2022-11-13T00:32:52;30.02;;;23.70;;
48627;SDS011;34424;52.234;6.500;2022-11-13T00:37:54;39.40;;;27.25;;
48627;SDS011;34424;52.234;6.500;2022-11-13T00:42:57;33.75;;;27.50;;
48627;SDS011;34424;52.234;6.500;2022-11-13T00:48:01;38.45;;;28.48;;
48627;SDS011;34424;52.234;6.500;2022-11-13T00:53:03;42.15;;;29.52;;
48627;SDS011;34424;52.234;6.500;2022-11-13T00:58:05;37.42;;;28.60;;
48627;SDS011;34424;52.234;6.500;2022-11-13T01:03:09;38.00;;;28.08;;
48627;SDS011;34424;52.234;6.500;2022-11-13T01:08:13;40.70;;;27.83;;
48627;SDS011;34424;52.234;6.500;2022-11-13T01:13:15;36.25;;;26.88;;
48627;SDS011;34424;52.234;6.500;2022-11-13T01:18:19;34.00;;;26.25;;
48627;SDS011;34424;52.234;6.500;2022-11-13T01:23:21;40.38;;;27.85;;
48627;SDS011;34424;52.234;6.500;2022-11-13T01:28:24;36.75;;;26.80;;
48627;SDS011;34424;52.234;6.500;2022-11-13T01:33:28;36.57;;;25.57;;
48627;SDS011;34424;52.234;6.500;2022-11-13T01:43:37;43.65;;;27.95;;
48627;SDS011;34424;52.234;6.500;2022-11-13T01:48:41;40.33;;;28.77;;
48627;SDS011;34424;52.234;6.500;2022-11-13T01:53:44;40.28;;;27.35;;
48627;SDS011;34424;52.234;6.500;2022-11-13T02:03:52;35.50;;;25.23;;
48627;SDS011;34424;52.234;6.500;2022-11-13T02:08:54;38.35;;;28.02;;
48627;SDS011;34424;52.234;6.500;2022-11-13T02:13:57;37.13;;;27.17;;
48627;SDS011;34424;52.234;6.500;2022-11-13T02:19:01;42.97;;;30.90;;
48627;SDS011;34424;52.234;6.500;2022-11-13T02:24:13;39.92;;;27.40;;
48627;SDS011;34424;52.234;6.500;2022-11-13T02:29:17;42.85;;;29.77;;
48627;SDS011;34424;52.234;6.500;2022-11-13T02:34:19;41.25;;;28.42;;
48627;SDS011;34424;52.234;6.500;2022-11-13T02:39:23;40.83;;;27.52;;
48627;SDS011;34424;52.234;6.500;2022-11-13T02:49:28;37.30;;;25.17;;
48627;SDS011;34424;52.234;6.500;2022-11-13T02:54:31;38.45;;;26.80;;
48627;SDS011;34424;52.234;6.500;2022-11-13T02:59:34;40.60;;;28.52;;
48627;SDS011;34424;52.234;6.500;2022-11-13T03:04:36;40.25;;;29.13;;
48627;SDS011;34424;52.234;6.500;2022-11-13T03:10:00;36.22;;;28.10;;
48627;SDS011;34424;52.234;6.500;2022-11-13T03:15:02;40.65;;;29.17;;
48627;SDS011;34424;52.234;6.500;2022-11-13T03:20:05;37.73;;;26.33;;
48627;SDS011;34424;52.234;6.500;2022-11-13T03:25:10;38.17;;;26.20;;
48627;SDS011;34424;52.234;6.500;2022-11-13T03:35:14;35.10;;;25.15;;
48627;SDS011;34424;52.234;6.500;2022-11-13T03:40:18;35.97;;;24.88;;
48627;SDS011;34424;52.234;6.500;2022-11-13T03:45:20;38.25;;;26.40;;
48627;SDS011;34424;52.234;6.500;2022-11-13T03:50:23;35.00;;;25.17;;
48627;SDS011;34424;52.234;6.500;2022-11-13T03:55:27;33.85;;;24.92;;
48627;SDS011;34424;52.234;6.500;2022-11-13T04:00:29;34.97;;;25.40;;
48627;SDS011;34424;52.234;6.500;2022-11-13T04:05:31;39.05;;;25.52;;
48627;SDS011;34424;52.234;6.500;2022-11-13T04:10:35;35.08;;;24.10;;
48627;SDS011;34424;52.234;6.500;2022-11-13T04:15:37;36.15;;;25.45;;
48627;SDS011;34424;52.234;6.500;2022-11-13T04:20:40;30.10;;;23.85;;
48627;SDS011;34424;52.234;6.500;2022-11-13T04:25:43;31.13;;;23.63;;
48627;SDS011;34424;52.234;6.500;2022-11-13T04:30:46;33.17;;;23.67;;
48627;SDS011;34424;52.234;6.500;2022-11-13T04:35:48;33.28;;;23.70;;
48627;SDS011;34424;52.234;6.500;2022-11-13T04:40:52;30.40;;;22.25;;
48627;SDS011;34424;52.234;6.500;2022-11-13T04:46:14;30.23;;;19.45;;
48627;SDS011;34424;52.234;6.500;2022-11-13T04:51:17;28.70;;;20.95;;
48627;SDS011;34424;52.234;6.500;2022-11-13T04:56:20;31.88;;;22.30;;
48627;SDS011;34424;52.234;6.500;2022-11-13T05:01:23;29.02;;;21.50;;
48627;SDS011;34424;52.234;6.500;2022-11-13T05:06:25;31.67;;;22.20;;
48627;SDS011;34424;52.234;6.500;2022-11-13T05:11:29;31.30;;;24.02;;
48627;SDS011;34424;52.234;6.500;2022-11-13T05:21:34;31.08;;;20.48;;
48627;SDS011;34424;52.234;6.500;2022-11-13T05:26:38;28.70;;;19.95;;
48627;SDS011;34424;52.234;6.500;2022-11-13T05:31:41;26.70;;;18.63;;
48627;SDS011;34424;52.234;6.500;2022-11-13T05:36:43;28.63;;;20.27;;
48627;SDS011;34424;52.234;6.500;2022-11-13T05:41:47;26.75;;;21.52;;
48627;SDS011;34424;52.234;6.500;2022-11-13T05:51:52;29.00;;;18.60;;
48627;SDS011;34424;52.234;6.500;2022-11-13T05:56:56;30.58;;;21.55;;
48627;SDS011;34424;52.234;6.500;2022-11-13T06:07:01;24.73;;;17.88;;
48627;SDS011;34424;52.234;6.500;2022-11-13T06:12:05;26.65;;;18.85;;
48627;SDS011;34424;52.234;6.500;2022-11-13T06:17:07;29.45;;;20.38;;
48627;SDS011;34424;52.234;6.500;2022-11-13T06:22:10;29.25;;;20.17;;
48627;SDS011;34424;52.234;6.500;2022-11-13T06:27:14;26.08;;;18.27;;
48627;SDS011;34424;52.234;6.500;2022-11-13T06:32:16;27.45;;;19.33;;
48627;SDS011;34424;52.234;6.500;2022-11-13T06:37:18;30.35;;;22.17;;
48627;SDS011;34424;52.234;6.500;2022-11-13T06:42:22;25.20;;;17.55;;
48627;SDS011;34424;52.234;6.500;2022-11-13T06:52:26;27.85;;;18.23;;
48627;SDS011;34424;52.234;6.500;2022-11-13T06:57:30;31.10;;;21.02;;
48627;SDS011;34424;52.234;6.500;2022-11-13T07:07:35;29.77;;;20.85;;
48627;SDS011;34424;52.234;6.500;2022-11-13T07:12:38;31.98;;;22.08;;
48627;SDS011;34424;52.234;6.500;2022-11-13T07:17:41;33.33;;;20.90;;
48627;SDS011;34424;52.234;6.500;2022-11-13T07:22:43;36.05;;;23.83;;
48627;SDS011;34424;52.234;6.500;2022-11-13T07:27:47;33.80;;;22.80;;
48627;SDS011;34424;52.234;6.500;2022-11-13T07:37:53;29.80;;;21.40;;
48627;SDS011;34424;52.234;6.500;2022-11-13T07:42:58;29.30;;;22.52;;
48627;SDS011;34424;52.234;6.500;2022-11-13T07:48:01;43.53;;;27.85;;
48627;SDS011;34424;52.234;6.500;2022-11-13T07:53:04;30.15;;;21.50;;
48627;SDS011;34424;52.234;6.500;2022-11-13T07:58:09;15.23;;;13.63;;
48627;SDS011;34424;52.234;6.500;2022-11-13T08:03:13;11.95;;;10.80;;
48627;SDS011;34424;52.234;6.500;2022-11-13T08:08:15;10.93;;;9.85;;
48627;SDS011;34424;52.234;6.500;2022-11-13T08:13:19;11.07;;;8.68;;
48627;SDS011;34424;52.234;6.500;2022-11-13T08:18:21;9.82;;;8.88;;
48627;SDS011;34424;52.234;6.500;2022-11-13T08:23:24;10.97;;;8.60;;
48627;SDS011;34424;52.234;6.500;2022-11-13T08:28:28;9.07;;;8.17;;
48627;SDS011;34424;52.234;6.500;2022-11-13T08:33:30;8.27;;;7.47;;
48627;SDS011;34424;52.234;6.500;2022-11-13T08:38:33;9.10;;;8.07;;
48627;SDS011;34424;52.234;6.500;2022-11-13T08:43:36;9.83;;;8.87;;
48627;SDS011;34424;52.234;6.500;2022-11-13T08:48:39;8.70;;;7.90;;
48627;SDS011;34424;52.234;6.500;2022-11-13T08:53:41;9.48;;;8.48;;
48627;SDS011;34424;52.234;6.500;2022-11-13T08:58:45;8.18;;;7.40;;
48627;SDS011;34424;52.234;6.500;2022-11-13T09:03:48;7.53;;;6.57;;
48627;SDS011;34424;52.234;6.500;2022-11-13T09:08:50;7.93;;;7.13;;
48627;SDS011;34424;52.234;6.500;2022-11-13T09:13:54;26.13;;;9.10;;
48627;SDS011;34424;52.234;6.500;2022-11-13T09:18:56;7.40;;;6.70;;
48627;SDS011;34424;52.234;6.500;2022-11-13T09:23:59;12.23;;;6.65;;
48627;SDS011;34424;52.234;6.500;2022-11-13T09:29:03;6.93;;;6.28;;
48627;SDS011;34424;52.234;6.500;2022-11-13T09:34:05;8.88;;;7.97;;
48627;SDS011;34424;52.234;6.500;2022-11-13T09:39:08;8.45;;;7.65;;
48627;SDS011;34424;52.234;6.500;2022-11-13T09:44:13;7.35;;;6.03;;
48627;SDS011;34424;52.234;6.500;2022-11-13T09:49:18;6.53;;;5.78;;
48627;SDS011;34424;52.234;6.500;2022-11-13T09:54:23;7.35;;;6.63;;
48627;SDS011;34424;52.234;6.500;2022-11-13T10:04:32;5.82;;;4.85;;
48627;SDS011;34424;52.234;6.500;2022-11-13T10:09:48;6.25;;;5.60;;
48627;SDS011;34424;52.234;6.500;2022-11-13T10:14:51;8.63;;;5.80;;
48627;SDS011;34424;52.234;6.500;2022-11-13T10:19:56;7.00;;;6.30;;
48627;SDS011;34424;52.234;6.500;2022-11-13T10:25:03;7.55;;;6.78;;
48627;SDS011;34424;52.234;6.500;2022-11-13T10:30:11;8.60;;;7.32;;
48627;SDS011;34424;52.234;6.500;2022-11-13T10:35:30;8.00;;;6.43;;
48627;SDS011;34424;52.234;6.500;2022-11-13T10:40:37;7.28;;;6.57;;
48627;SDS011;34424;52.234;6.500;2022-11-13T10:45:41;7.65;;;6.80;;
48627;SDS011;34424;52.234;6.500;2022-11-13T10:50:50;6.45;;;5.85;;
48627;SDS011;34424;52.234;6.500;2022-11-13T10:55:55;7.00;;;6.30;;
48627;SDS011;34424;52.234;6.500;2022-11-13T11:00:57;7.35;;;6.65;;
48627;SDS011;34424;52.234;6.500;2022-11-13T11:06:02;7.43;;;6.53;;
48627;SDS011;34424;52.234;6.500;2022-11-13T11:11:06;6.68;;;6.05;;
48627;SDS011;34424;52.234;6.500;2022-11-13T11:16:27;7.85;;;6.30;;
48627;SDS011;34424;52.234;6.500;2022-11-13T11:21:31;6.95;;;6.32;;
48627;SDS011;34424;52.234;6.500;2022-11-13T11:26:34;8.07;;;6.53;;
48627;SDS011;34424;52.234;6.500;2022-11-13T11:31:39;6.93;;;5.78;;
48627;SDS011;34424;52.234;6.500;2022-11-13T11:36:47;8.20;;;6.45;;
48627;SDS011;34424;52.234;6.500;2022-11-13T11:41:52;7.13;;;6.43;;
48627;SDS011;34424;52.234;6.500;2022-11-13T11:46:56;7.13;;;6.38;;
48627;SDS011;34424;52.234;6.500;2022-11-13T11:52:03;6.38;;;5.72;;
48627;SDS011;34424;52.234;6.500;2022-11-13T11:57:13;8.00;;;6.60;;
48627;SDS011;34424;52.234;6.500;2022-11-13T12:02:26;7.80;;;6.93;;
48627;SDS011;34424;52.234;6.500;2022-11-13T12:07:38;7.03;;;6.32;;
48627;SDS011;34424;52.234;6.500;2022-11-13T12:12:48;7.35;;;6.47;;
48627;SDS011;34424;52.234;6.500;2022-11-13T12:17:55;6.32;;;5.47;;
48627;SDS011;34424;52.234;6.500;2022-11-13T12:23:03;6.30;;;5.45;;
48627;SDS011;34424;52.234;6.500;2022-11-13T12:28:11;6.13;;;5.53;;
48627;SDS011;34424;52.234;6.500;2022-11-13T12:33:18;5.80;;;5.30;;
48627;SDS011;34424;52.234;6.500;2022-11-13T12:38:26;5.82;;;5.13;;
48627;SDS011;34424;52.234;6.500;2022-11-13T12:43:36;7.03;;;5.00;;
48627;SDS011;34424;52.234;6.500;2022-11-13T12:48:43;5.85;;;5.10;;
48627;SDS011;34424;52.234;6.500;2022-11-13T12:53:47;6.22;;;4.60;;
48627;SDS011;34424;52.234;6.500;2022-11-13T12:58:51;6.75;;;5.18;;
48627;SDS011;34424;52.234;6.500;2022-11-13T13:04:26;5.57;;;5.07;;
48627;SDS011;34424;52.234;6.500;2022-11-13T13:09:35;4.85;;;4.43;;
48627;SDS011;34424;52.234;6.500;2022-11-13T13:14:47;5.40;;;3.65;;
48627;SDS011;34424;52.234;6.500;2022-11-13T13:19:56;4.30;;;3.80;;
48627;SDS011;34424;52.234;6.500;2022-11-13T13:25:02;4.30;;;3.67;;
48627;SDS011;34424;52.234;6.500;2022-11-13T13:30:14;6.03;;;3.85;;
48627;SDS011;34424;52.234;6.500;2022-11-13T13:35:18;5.10;;;4.60;;
48627;SDS011;34424;52.234;6.500;2022-11-13T13:40:25;3.95;;;3.65;;
48627;SDS011;34424;52.234;6.500;2022-11-13T13:45:31;4.22;;;3.83;;
48627;SDS011;34424;52.234;6.500;2022-11-13T13:50:38;4.22;;;3.70;;
48627;SDS011;34424;52.234;6.500;2022-11-13T13:55:44;4.15;;;3.60;;
48627;SDS011;34424;52.234;6.500;2022-11-13T14:00:53;3.97;;;3.53;;
48627;SDS011;34424;52.234;6.500;2022-11-13T14:06:17;4.18;;;3.38;;
48627;SDS011;34424;52.234;6.500;2022-11-13T14:11:22;5.22;;;4.70;;
48627;SDS011;34424;52.234;6.500;2022-11-13T14:16:27;5.63;;;5.07;;
48627;SDS011;34424;52.234;6.500;2022-11-13T14:21:29;7.60;;;5.53;;
48627;SDS011;34424;52.234;6.500;2022-11-13T14:26:33;7.18;;;5.30;;
48627;SDS011;34424;52.234;6.500;2022-11-13T14:31:35;6.20;;;5.60;;
48627;SDS011;34424;52.234;6.500;2022-11-13T14:36:38;6.97;;;6.10;;
48627;SDS011;34424;52.234;6.500;2022-11-13T14:41:49;7.45;;;6.65;;
48627;SDS011;34424;52.234;6.500;2022-11-13T14:46:57;7.20;;;6.50;;
48627;SDS011;34424;52.234;6.500;2022-11-13T14:52:00;8.05;;;6.50;;
48627;SDS011;34424;52.234;6.500;2022-11-13T14:57:07;7.10;;;6.40;;
48627;SDS011;34424;52.234;6.500;2022-11-13T15:02:10;8.57;;;7.68;;
48627;SDS011;34424;52.234;6.500;2022-11-13T15:07:22;7.93;;;7.13;;
48627;SDS011;34424;52.234;6.500;2022-11-13T15:12:26;8.85;;;8.00;;
48627;SDS011;34424;52.234;6.500;2022-11-13T15:17:29;8.23;;;7.43;;
48627;SDS011;34424;52.234;6.500;2022-11-13T15:22:31;8.90;;;7.47;;
48627;SDS011;34424;52.234;6.500;2022-11-13T15:27:35;8.55;;;7.70;;
48627;SDS011;34424;52.234;6.500;2022-11-13T15:32:43;8.95;;;7.82;;
48627;SDS011;34424;52.234;6.500;2022-11-13T15:42:50;9.27;;;8.13;;
48627;SDS011;34424;52.234;6.500;2022-11-13T15:47:52;13.27;;;11.55;;
48627;SDS011;34424;52.234;6.500;2022-11-13T15:52:55;12.43;;;11.02;;
48627;SDS011;34424;52.234;6.500;2022-11-13T15:58:07;13.32;;;12.02;;
48627;SDS011;34424;52.234;6.500;2022-11-13T16:03:15;16.02;;;12.38;;
48627;SDS011;34424;52.234;6.500;2022-11-13T16:08:19;21.63;;;17.60;;
48627;SDS011;34424;52.234;6.500;2022-11-13T16:13:23;15.75;;;13.00;;
48627;SDS011;34424;52.234;6.500;2022-11-13T16:18:26;14.95;;;13.00;;
48627;SDS011;34424;52.234;6.500;2022-11-13T16:28:33;14.05;;;12.18;;
48627;SDS011;34424;52.234;6.500;2022-11-13T16:33:55;13.90;;;12.33;;
48627;SDS011;34424;52.234;6.500;2022-11-13T16:38:57;14.65;;;12.77;;
48627;SDS011;34424;52.234;6.500;2022-11-13T16:44:01;9.70;;;8.60;;
48627;SDS011;34424;52.234;6.500;2022-11-13T16:49:04;9.93;;;8.30;;
48627;SDS011;34424;52.234;6.500;2022-11-13T16:54:06;10.02;;;8.18;;
48627;SDS011;34424;52.234;6.500;2022-11-13T16:59:10;11.90;;;9.23;;
48627;SDS011;34424;52.234;6.500;2022-11-13T17:04:13;8.75;;;7.85;;
48627;SDS011;34424;52.234;6.500;2022-11-13T17:09:15;8.82;;;7.35;;
48627;SDS011;34424;52.234;6.500;2022-11-13T17:14:20;7.80;;;6.97;;
48627;SDS011;34424;52.234;6.500;2022-11-13T17:19:22;8.52;;;7.72;;
48627;SDS011;34424;52.234;6.500;2022-11-13T17:24:25;9.43;;;8.43;;
48627;SDS011;34424;52.234;6.500;2022-11-13T17:29:29;8.27;;;7.47;;
48627;SDS011;34424;52.234;6.500;2022-11-13T17:34:31;9.57;;;8.65;;
48627;SDS011;34424;52.234;6.500;2022-11-13T17:39:33;9.38;;;8.48;;
48627;SDS011;34424;52.234;6.500;2022-11-13T17:44:37;9.73;;;8.45;;
48627;SDS011;34424;52.234;6.500;2022-11-13T17:49:39;9.57;;;8.68;;
48627;SDS011;34424;52.234;6.500;2022-11-13T17:54:42;10.82;;;9.73;;
48627;SDS011;34424;52.234;6.500;2022-11-13T17:59:46;11.63;;;10.43;;
48627;SDS011;34424;52.234;6.500;2022-11-13T18:04:48;11.75;;;10.48;;
48627;SDS011;34424;52.234;6.500;2022-11-13T18:09:50;12.50;;;11.02;;
48627;SDS011;34424;52.234;6.500;2022-11-13T18:14:54;12.10;;;10.60;;
48627;SDS011;34424;52.234;6.500;2022-11-13T18:19:57;12.23;;;10.90;;
48627;SDS011;34424;52.234;6.500;2022-11-13T18:25:02;13.05;;;11.45;;
48627;SDS011;34424;52.234;6.500;2022-11-13T18:30:07;13.70;;;12.33;;
48627;SDS011;34424;52.234;6.500;2022-11-13T18:35:10;13.55;;;12.20;;
48627;SDS011;34424;52.234;6.500;2022-11-13T18:40:12;16.13;;;14.52;;
48627;SDS011;34424;52.234;6.500;2022-11-13T18:45:16;16.02;;;13.57;;
48627;SDS011;34424;52.234;6.500;2022-11-13T18:50:20;32.92;;;21.13;;
48627;SDS011;34424;52.234;6.500;2022-11-13T18:55:24;33.05;;;22.40;;
48627;SDS011;34424;52.234;6.500;2022-11-13T19:00:30;18.83;;;16.80;;
48627;SDS011;34424;52.234;6.500;2022-11-13T19:05:33;17.33;;;14.73;;
48627;SDS011;34424;52.234;6.500;2022-11-13T19:10:36;16.00;;;13.32;;
48627;SDS011;34424;52.234;6.500;2022-11-13T19:15:40;17.23;;;14.38;;
48627;SDS011;34424;52.234;6.500;2022-11-13T19:20:51;21.13;;;17.45;;
48627;SDS011;34424;52.234;6.500;2022-11-13T19:25:54;19.67;;;14.27;;
48627;SDS011;34424;52.234;6.500;2022-11-13T19:30:58;24.08;;;21.63;;
48627;SDS011;34424;52.234;6.500;2022-11-13T19:36:04;22.08;;;18.40;;
48627;SDS011;34424;52.234;6.500;2022-11-13T19:41:07;21.55;;;18.58;;
48627;SDS011;34424;52.234;6.500;2022-11-13T19:46:11;23.43;;;18.83;;
48627;SDS011;34424;52.234;6.500;2022-11-13T19:51:14;26.08;;;21.35;;
48627;SDS011;34424;52.234;6.500;2022-11-13T19:56:18;22.88;;;19.15;;
48627;SDS011;34424;52.234;6.500;2022-11-13T20:01:22;24.15;;;18.75;;
48627;SDS011;34424;52.234;6.500;2022-11-13T20:06:25;21.58;;;17.05;;
48627;SDS011;34424;52.234;6.500;2022-11-13T20:11:28;23.60;;;17.33;;
48627;SDS011;34424;52.234;6.500;2022-11-13T20:16:32;25.90;;;18.20;;
48627;SDS011;34424;52.234;6.500;2022-11-13T20:26:37;29.50;;;20.10;;
48627;SDS011;34424;52.234;6.500;2022-11-13T20:31:40;30.02;;;22.33;;
48627;SDS011;34424;52.234;6.500;2022-11-13T20:36:43;33.28;;;24.80;;
48627;SDS011;34424;52.234;6.500;2022-11-13T20:41:45;32.33;;;24.67;;
48627;SDS011;34424;52.234;6.500;2022-11-13T20:46:49;34.35;;;26.10;;
48627;SDS011;34424;52.234;6.500;2022-11-13T20:51:51;41.22;;;29.13;;
48627;SDS011;34424;52.234;6.500;2022-11-13T20:56:57;45.53;;;30.95;;
48627;SDS011;34424;52.234;6.500;2022-11-13T21:02:01;45.58;;;30.45;;
48627;SDS011;34424;52.234;6.500;2022-11-13T21:07:05;49.08;;;32.78;;
48627;SDS011;34424;52.234;6.500;2022-11-13T21:12:08;44.83;;;32.78;;
48627;SDS011;34424;52.234;6.500;2022-11-13T21:17:11;50.30;;;34.80;;
48627;SDS011;34424;52.234;6.500;2022-11-13T21:22:14;53.92;;;37.05;;
48627;SDS011;34424;52.234;6.500;2022-11-13T21:27:16;49.75;;;34.08;;
48627;SDS011;34424;52.234;6.500;2022-11-13T21:32:23;61.05;;;39.85;;
48627;SDS011;34424;52.234;6.500;2022-11-13T21:37:25;58.78;;;39.70;;
48627;SDS011;34424;52.234;6.500;2022-11-13T21:42:28;61.37;;;38.93;;
48627;SDS011;34424;52.234;6.500;2022-11-13T21:47:31;65.55;;;42.47;;
48627;SDS011;34424;52.234;6.500;2022-11-13T21:52:34;75.03;;;43.20;;
48627;SDS011;34424;52.234;6.500;2022-11-13T21:57:36;81.13;;;45.42;;
48627;SDS011;34424;52.234;6.500;2022-11-13T22:02:40;76.22;;;42.00;;
48627;SDS011;34424;52.234;6.500;2022-11-13T22:07:43;78.03;;;44.17;;
48627;SDS011;34424;52.234;6.500;2022-11-13T22:12:45;80.07;;;42.65;;
48627;SDS011;34424;52.234;6.500;2022-11-13T22:17:49;91.05;;;46.17;;
48627;SDS011;34424;52.234;6.500;2022-11-13T22:22:51;88.72;;;46.38;;
48627;SDS011;34424;52.234;6.500;2022-11-13T22:27:54;89.10;;;46.15;;
48627;SDS011;34424;52.234;6.500;2022-11-13T22:32:58;80.80;;;42.53;;
48627;SDS011;34424;52.234;6.500;2022-11-13T22:38:00;90.85;;;44.95;;
48627;SDS011;34424;52.234;6.500;2022-11-13T22:43:03;97.50;;;50.17;;
48627;SDS011;34424;52.234;6.500;2022-11-13T22:48:06;102.75;;;50.63;;
48627;SDS011;34424;52.234;6.500;2022-11-13T22:53:10;92.78;;;50.42;;
48627;SDS011;34424;52.234;6.500;2022-11-13T22:58:14;103.40;;;49.17;;
48627;SDS011;34424;52.234;6.500;2022-11-13T23:03:18;102.20;;;49.55;;
48627;SDS011;34424;52.234;6.500;2022-11-13T23:08:20;104.22;;;49.10;;
48627;SDS011;34424;52.234;6.500;2022-11-13T23:13:23;108.18;;;50.03;;
48627;SDS011;34424;52.234;6.500;2022-11-13T23:18:27;110.05;;;47.70;;
48627;SDS011;34424;52.234;6.500;2022-11-13T23:23:31;104.90;;;47.75;;
48627;SDS011;34424;52.234;6.500;2022-11-13T23:28:33;94.13;;;44.57;;
48627;SDS011;34424;52.234;6.500;2022-11-13T23:33:37;111.50;;;48.17;;
48627;SDS011;34424;52.234;6.500;2022-11-13T23:38:40;97.88;;;45.05;;
48627;SDS011;34424;52.234;6.500;2022-11-13T23:43:42;121.88;;;48.50;;
48627;SDS011;34424;52.234;6.500;2022-11-13T23:49:06;111.47;;;48.95;;
48627;SDS011;34424;52.234;6.500;2022-11-13T23:54:08;112.97;;;47.15;;
48627;SDS011;34424;52.234;6.500;2022-11-13T23:59:11;114.63;;;48.30;;
